Albany, NY (12205)

8:05 PM EDT en Mayo 25, 2017 (GMT -0400)
Ensign Place | | Change Station

Alt 270 ft 42.70 °N, 73.79 °W | Updated 6 minutes ago

Light Drizzle
Llovizna débil
57.0 ° F
Sensación térmica 57.0 ° F
N
1.7
Viento Variable Viento desde OSO

Hoy
Alta -- | Baja -- ° F
--% Posibilidad de precipitaciones
Ayer
Alta -- | Baja -- ° F
Precip. -- pul
Presión 29.62 pul
Visibilidad 9.0 Millas
Nubes Baja 500 ft
Muy nublado 2500 ft
Nublado 3000 ft
Punto de rocío 57 ° F
Humedad 99%
Precipitaciones 0.68 pul
Espesor de la nieve No disponible.
5:23 AM 8:21 PM
Luna nueva, 0% visible
METAR KALB 252351Z 00000KT 9SM -DZ FEW005 BKN025 OVC030 14/13 A2962 RMK AO2 RAE50DZB02E09B50 SLP031 PCPN VRY LGT P0001 60016 T01390128 10144 20133 53002
Presión 29.62 pul
Visibilidad 9.0 Millas
Nubes Baja 500 ft
Muy nublado 2500 ft
Nublado 3000 ft
Punto de rocío 57 ° F
Humedad 99%
Precipitaciones 0.68 pul
Espesor de la nieve No disponible.
5:23 AM 8:21 PM
Luna nueva, 0% visible
METAR KALB 252351Z 00000KT 9SM -DZ FEW005 BKN025 OVC030 14/13 A2962 RMK AO2 RAE50DZB02E09B50 SLP031 PCPN VRY LGT P0001 60016 T01390128 10144 20133 53002

Get Severe Weather Alerts

Thanks for signing up!

Be on the lookout for a verification email in your inbox.

You'll start receiving the daily forecast at 6 AM.

×

10-Day Weather Forecast

Almanac

Astronomía

May. 25, 2017 Salida Puesta
Hora real
Crepúsculo civil
Crepúsculo náutico
Crepúsculo astronómico
Luna
Horas de luz
Horas de luz
Tomorrow will be .
, % of the Moon is Illuminated

Extremos de hoy

Máximos del estado Bajos del estado

Community

WunderPhotos

Category 6

Welcome to Category 6. This is the collective home for Weather Underground's featured writeups by Dr. Jeff Masters (right), Bob Henson (left), Chris Burt, and other regular contributors.

Nearby

Calidad del aire

  Calidad del aire Índice AQ Contaminante
Not available.

Grosos de nieve

Estación Profundido Altura

Actividad de terremotos

Ciudad Distance Mag. Tiempo y dato
Magnitud mínima muestra es 2,5.

Temperaturas de aguas costeras

Lugar Temperatura

Stations

Estaciones meteorológicas cercanas

Ubicación de la estación Temp. Vientos helados Punto de rocío Humedad Viento Precip. Alt Actualizado Tipo
                   

Watches & Warnings

There are currently no watches in effect.